Time;durP1;ratioP1;P1;durP2;ratioP2;P2;SDS_P1;SDS_P2;PMS_P1;PMS_P2;Temp;Humidity;BMP_temperature;BMP_pressure;BME280_temperature;BME280_humidity;BME280_pressure;Samples;Min_cycle;Max_cycle;Signal;HPM_P1;HPM_P2
2022/05/20 00:01:45;;;;;;;38.08;25.30;;;;;;;-148.88;100.00;75732.53;5033505;28;20390;-76
2022/05/20 00:04:10;;;;;;;33.25;22.70;;;;;;;-148.88;100.00;75740.66;5033896;28;20107;-76
2022/05/20 00:06:36;;;;;;;32.60;24.20;;;;;;;-148.88;100.00;75765.03;5033571;28;20390;-76
2022/05/20 00:09:02;;;;;;;36.03;24.88;;;;;;;-148.88;100.00;75775.19;5033855;28;20107;-76
2022/05/20 00:11:27;;;;;;;36.20;25.63;;;;;;;-148.88;100.00;75785.34;5033670;28;20017;-76
2022/05/20 00:13:52;;;;;;;36.55;25.55;;;;;;;-148.88;100.00;75787.38;5033382;28;20018;-76
2022/05/20 00:16:17;;;;;;;36.63;26.45;;;;;;;-148.88;100.00;75793.47;5015666;28;20021;-75
2022/05/20 00:18:43;;;;;;;37.53;25.27;;;;;;;-148.88;100.00;75797.53;5033291;28;20021;-76
2022/05/20 00:21:08;;;;;;;36.22;26.08;;;;;;;-148.88;100.00;75815.81;5033546;28;20040;-76
2022/05/20 00:23:34;;;;;;;36.95;26.33;;;;;;;-148.88;100.00;75834.09;5033178;28;20032;-76
2022/05/20 00:25:59;;;;;;;37.53;27.67;;;;;;;-148.88;100.00;75838.16;5033212;28;20091;-76
2022/05/20 00:28:27;;;;;;;39.78;27.55;;;;;;;-148.88;100.00;75846.28;5033150;28;20067;-76
2022/05/20 00:30:57;;;;;;;37.60;26.92;;;;;;;-148.88;100.00;75854.41;5033186;28;20029;-76
2022/05/20 00:33:24;;;;;;;35.75;26.25;;;;;;;-148.88;100.00;75866.59;5033404;28;20052;-76
2022/05/20 00:35:49;;;;;;;35.85;26.08;;;;;;;-148.88;100.00;75858.47;5033102;28;20033;-76
2022/05/20 00:38:16;;;;;;;37.08;26.17;;;;;;;-148.88;100.00;75860.50;5033111;28;20036;-76
2022/05/20 00:40:41;;;;;;;37.20;26.23;;;;;;;-148.88;100.00;75876.75;5015346;28;20578;-76
2022/05/20 00:43:09;;;;;;;34.95;26.23;;;;;;;-148.88;100.00;75895.03;5032849;28;20116;-76
2022/05/20 00:45:35;;;;;;;41.10;27.33;;;;;;;-148.88;100.00;75893.00;5032971;28;20037;-76
2022/05/20 00:48:00;;;;;;;38.22;26.40;;;;;;;-148.88;100.00;75899.09;5015295;28;20036;-76
2022/05/20 00:50:25;;;;;;;36.85;25.45;;;;;;;-148.88;100.00;75895.03;5015300;28;20071;-76
2022/05/20 00:52:51;;;;;;;38.35;26.00;;;;;;;-148.88;100.00;75903.16;5016615;28;20017;-76
2022/05/20 00:55:19;;;;;;;36.28;24.40;;;;;;;-148.88;100.00;75903.16;5019329;28;20025;-76
2022/05/20 00:58:08;;;;;;;32.03;22.95;;;;;;;-148.88;100.00;75913.31;5036962;28;20033;-76
2022/05/20 01:00:39;;;;;;;30.83;23.55;;;;;;;-148.88;100.00;75907.22;5037241;28;20021;-76
2022/05/20 01:03:09;;;;;;;31.80;23.33;;;;;;;-148.88;100.00;75923.47;5037057;28;20029;-76
2022/05/20 01:05:38;;;;;;;36.65;23.55;;;;;;;-148.88;100.00;75931.59;5019164;28;20029;-76
2022/05/20 01:08:06;;;;;;;30.60;21.52;;;;;;;-148.88;100.00;75927.53;5036688;28;20029;-76
2022/05/20 01:10:31;;;;;;;32.53;21.38;;;;;;;-148.88;100.00;75951.91;5036753;28;20040;-76
2022/05/20 01:12:57;;;;;;;29.15;21.45;;;;;;;-148.88;100.00;75960.03;5018986;28;20037;-76
2022/05/20 01:15:23;;;;;;;31.92;22.00;;;;;;;-148.88;100.00;75964.09;5018984;28;20022;-76
2022/05/20 01:17:52;;;;;;;33.75;22.80;;;;;;;-148.88;100.00;75964.09;5036863;28;20471;-76
2022/05/20 01:20:22;;;;;;;30.58;21.60;;;;;;;-148.88;100.00;75964.09;5018822;28;20071;-76
2022/05/20 01:22:53;;;;;;;36.22;22.10;;;;;;;-148.88;100.00;75966.13;5036476;28;20025;-76
2022/05/20 01:25:21;;;;;;;32.13;22.13;;;;;;;-148.88;100.00;75966.13;5061178;22;20154;-81
2022/05/20 01:27:46;;;;;;;33.50;24.10;;;;;;;-148.88;100.00;75988.47;5047486;28;20053;-81
2022/05/20 01:30:15;;;;;;;32.78;23.83;;;;;;;-148.88;100.00;75980.34;5028962;28;20029;-80
2022/05/20 01:32:41;;;;;;;34.97;24.08;;;;;;;-148.88;100.00;75994.56;5030323;28;20043;-80
2022/05/20 01:35:12;;;;;;;35.83;24.60;;;;;;;-148.88;100.00;76004.72;5049353;28;20079;-80
2022/05/20 01:37:37;;;;;;;32.50;23.73;;;;;;;-148.88;100.00;76012.84;5031327;28;20437;-81
2022/05/20 01:40:03;;;;;;;31.65;23.50;;;;;;;-148.88;100.00;76012.84;5047688;28;20075;-81
2022/05/20 01:42:45;;;;;;;36.40;24.75;;;;;;;-148.88;100.00;76029.09;5049937;28;20022;-81
2022/05/20 01:45:30;;;;;;;39.28;25.88;;;;;;;-148.88;100.00;76027.06;5052612;28;20038;-82
2022/05/20 01:48:32;;;;;;;40.63;26.38;;;;;;;-148.88;100.00;76025.03;5020513;28;20024;-79
2022/05/20 01:50:58;;;;;;;40.83;26.83;;;;;;;-148.88;100.00;76039.25;5018576;28;20068;-80
2022/05/20 01:53:32;;;;;;;45.35;27.15;;;;;;;-148.88;100.00;76049.41;5036822;28;20072;-80
2022/05/20 01:55:58;;;;;;;43.53;27.75;;;;;;;-148.88;100.00;76049.41;5025095;28;20025;-80
2022/05/20 01:58:29;;;;;;;44.92;28.67;;;;;;;-148.88;100.00;76057.53;5026971;28;20052;-81
2022/05/20 02:00:58;;;;;;;40.83;28.50;;;;;;;-148.88;100.00;76065.66;5027977;28;20108;-79
2022/05/20 02:03:29;;;;;;;43.38;29.92;;;;;;;-148.88;100.00;76055.50;5043174;28;20021;-79
2022/05/20 02:06:19;;;;;;;49.95;29.60;;;;;;;-148.88;100.00;76079.88;5026051;28;20091;-79
2022/05/20 02:08:51;;;;;;;51.03;30.65;;;;;;;-148.88;100.00;76083.94;5029132;28;20085;-80
2022/05/20 02:11:29;;;;;;;49.60;29.52;;;;;;;-148.88;100.00;76094.09;5027316;28;20029;-81
2022/05/20 02:14:10;;;;;;;47.60;31.88;;;;;;;-148.88;100.00;76106.28;5048929;28;20021;-82
2022/05/20 02:16:42;;;;;;;47.42;31.52;;;;;;;-148.88;100.00;76102.22;5029816;28;20018;-81
2022/05/20 02:19:27;;;;;;;44.85;29.60;;;;;;;-148.88;100.00;76104.25;5028660;28;20089;-82
2022/05/20 02:21:56;;;;;;;46.00;29.17;;;;;;;-148.88;100.00;76110.34;5029189;28;20022;-80
2022/05/20 02:24:26;;;;;;;46.13;29.27;;;;;;;-148.88;100.00;76112.41;5050234;28;20487;-81
2022/05/20 02:26:56;;;;;;;42.78;28.80;;;;;;;-148.88;100.00;76108.31;5019719;28;20025;-79
2022/05/20 02:29:29;;;;;;;44.22;29.17;;;;;;;-148.88;100.00;76116.44;5018679;28;20083;-79
2022/05/20 02:32:10;;;;;;;41.97;27.77;;;;;;;-148.88;100.00;76112.41;5036325;28;20049;-81
2022/05/20 02:34:35;;;;;;;41.80;28.25;;;;;;;-148.88;100.00;76126.59;5024316;28;20027;-82
2022/05/20 02:37:32;;;;;;;44.80;29.67;;;;;;;-148.88;100.00;76142.88;5046874;28;20049;-80
2022/05/20 02:39:58;;;;;;;44.70;29.95;;;;;;;-148.88;100.00;76144.91;5027086;28;20083;-80
2022/05/20 02:42:23;;;;;;;43.60;27.73;;;;;;;-148.88;100.00;76134.72;5026838;28;20021;-81
2022/05/20 02:44:49;;;;;;;42.28;28.10;;;;;;;-148.88;100.00;76126.59;5027039;28;20116;-81
2022/05/20 02:47:15;;;;;;;40.00;28.52;;;;;;;-148.88;100.00;76122.56;5026295;28;20022;-81
2022/05/20 02:49:40;;;;;;;40.03;27.92;;;;;;;-148.88;100.00;76114.41;5044495;28;20025;-80
2022/05/20 02:52:07;;;;;;;47.33;29.02;;;;;;;-148.88;100.00;76116.44;5048334;28;20032;-80
2022/05/20 02:54:32;;;;;;;45.50;28.92;;;;;;;-148.88;100.00;76112.41;5048034;28;20025;-82
2022/05/20 02:56:58;;;;;;;39.65;26.58;;;;;;;-148.88;100.00;76106.28;5043952;28;20044;-81
2022/05/20 03:04:52;;;;;;;;;;;;;;;-148.88;100.00;76106.28;5027558;28;20052;-80
2022/05/20 03:07:17;;;;;;;39.38;27.90;;;;;;;-148.88;100.00;76118.47;5035814;28;20355;-80
2022/05/20 03:09:43;;;;;;;40.92;27.55;;;;;;;-148.88;100.00;76116.44;5017554;28;20029;-80
2022/05/20 03:12:10;;;;;;;37.83;27.08;;;;;;;-148.88;100.00;76128.66;5026226;28;20029;-81
2022/05/20 03:14:38;;;;;;;40.10;26.27;;;;;;;-148.88;100.00;76132.72;5045086;28;20021;-82
2022/05/20 03:17:04;;;;;;;38.65;27.20;;;;;;;-148.88;100.00;76126.59;5025177;28;20018;-80
2022/05/20 03:19:31;;;;;;;40.45;27.55;;;;;;;-148.88;100.00;76122.56;5043286;28;20017;-80
2022/05/20 03:22:00;;;;;;;40.42;25.98;;;;;;;-148.88;100.00;76126.59;5026838;28;20372;-81
2022/05/20 03:24:26;;;;;;;34.45;24.73;;;;;;;-148.88;100.00;76122.56;5027160;28;20467;-82
2022/05/20 03:26:51;;;;;;;40.28;26.15;;;;;;;-148.88;100.00;76122.56;5030663;23;20490;-80
2022/05/20 03:29:17;;;;;;;33.92;24.20;;;;;;;-148.88;100.00;76112.41;5035409;28;20052;-80
2022/05/20 03:31:42;;;;;;;39.20;25.42;;;;;;;-148.88;100.00;76106.28;5019474;28;20124;-81
2022/05/20 03:34:09;;;;;;;33.45;23.88;;;;;;;-148.88;100.00;76106.28;5019763;28;20021;-81
2022/05/20 03:36:37;;;;;;;31.52;24.48;;;;;;;-148.88;100.00;76124.56;5037526;28;20021;-81
2022/05/20 03:39:04;;;;;;;30.77;23.85;;;;;;;-148.88;100.00;76122.56;5020120;28;20037;-82
2022/05/20 03:41:30;;;;;;;33.40;22.58;;;;;;;-148.88;100.00;76122.56;5038576;28;20025;-80
2022/05/20 03:43:55;;;;;;;32.63;23.98;;;;;;;-148.88;100.00;76128.66;5020501;28;20021;-82
2022/05/20 03:46:21;;;;;;;33.38;23.92;;;;;;;-148.88;100.00;76138.81;5020706;28;20052;-79
2022/05/20 03:48:46;;;;;;;32.38;23.40;;;;;;;-148.88;100.00;76144.91;5020543;28;20500;-82
2022/05/20 03:51:14;;;;;;;30.75;23.17;;;;;;;-148.88;100.00;76140.84;5037976;28;20037;-83
2022/05/20 03:53:39;;;;;;;31.70;22.80;;;;;;;-148.88;100.00;76142.88;5019940;28;20028;-80
2022/05/20 03:56:05;;;;;;;31.80;22.60;;;;;;;-148.88;100.00;76136.78;5019548;28;20021;-81
2022/05/20 03:58:31;;;;;;;31.00;22.67;;;;;;;-148.88;100.00;76142.88;5037592;28;20203;-81
2022/05/20 04:03:45;;;;;;;31.92;22.42;;;;;;;-148.88;100.00;76151.00;5034356;28;20028;-80
2022/05/20 04:06:10;;;;;;;32.03;22.52;;;;;;;-148.88;100.00;76161.16;5035299;28;20029;-81
2022/05/20 04:08:36;;;;;;;31.05;23.65;;;;;;;-148.88;100.00;76165.22;5036455;28;20025;-80
2022/05/20 04:11:02;;;;;;;33.00;22.80;;;;;;;-148.88;100.00;76140.84;5036680;28;20025;-80
2022/05/20 04:13:27;;;;;;;32.83;24.08;;;;;;;-148.88;100.00;76151.00;5018913;28;20083;-81
2022/05/20 04:15:54;;;;;;;33.58;23.10;;;;;;;-148.88;100.00;76144.91;5019790;28;20382;-80
2022/05/20 04:18:20;;;;;;;34.53;23.90;;;;;;;-148.88;100.00;76136.78;5036664;28;20108;-82
2022/05/20 04:20:45;;;;;;;33.50;24.45;;;;;;;-148.88;100.00;76126.59;5019009;28;20057;-81
2022/05/20 04:23:11;;;;;;;31.20;23.30;;;;;;;-148.88;100.00;76130.69;5035967;28;20039;-81
2022/05/20 04:25:36;;;;;;;33.00;22.67;;;;;;;-148.88;100.00;76134.72;5018979;28;20025;-81
2022/05/20 04:28:01;;;;;;;31.15;23.20;;;;;;;-148.88;100.00;76126.59;5018508;28;20048;-81
2022/05/20 04:30:27;;;;;;;31.15;22.90;;;;;;;-148.88;100.00;76118.47;5020603;28;20057;-81
2022/05/20 04:32:52;;;;;;;37.40;23.15;;;;;;;-148.88;100.00;76114.41;5038765;28;20100;-82
2022/05/20 04:35:17;;;;;;;33.38;23.42;;;;;;;-148.88;100.00;76122.56;5021069;28;20500;-82
2022/05/20 04:37:42;;;;;;;32.40;23.63;;;;;;;-148.88;100.00;76126.59;5021885;28;20438;-81
2022/05/20 04:40:08;;;;;;;35.47;24.35;;;;;;;-148.88;100.00;76122.56;5037378;28;20036;-81
2022/05/20 04:48:05;;;;;;;32.38;24.15;;;;;;;-148.88;100.00;76124.56;5036445;28;20147;-82
2022/05/20 04:50:30;;;;;;;31.92;24.55;;;;;;;-148.88;100.00;76126.59;5018802;28;20056;-81
2022/05/20 04:52:56;;;;;;;29.92;22.77;;;;;;;-148.88;100.00;76122.56;5036209;28;20029;-82
2022/05/20 04:55:21;;;;;;;31.20;22.90;;;;;;;-148.88;100.00;76130.69;5018872;28;20097;-81
2022/05/20 04:57:52;;;;;;;32.00;22.92;;;;;;;-148.88;100.00;76136.78;5018725;28;20463;-82
2022/05/20 05:00:25;;;;;;;33.45;22.20;;;;;;;-148.88;100.00;76146.94;5018994;28;20021;-81
2022/05/20 05:02:51;;;;;;;;;;;;;;;-148.88;100.00;76142.88;5038023;28;20071;-81
2022/05/20 05:05:19;;;;;;;31.27;21.75;;;;;;;-148.88;100.00;76153.03;5019634;28;19912;-81
2022/05/20 05:07:47;;;;;;;33.88;22.80;;;;;;;-148.88;100.00;76159.13;5020162;28;20051;-81
2022/05/20 05:10:16;;;;;;;27.63;21.27;;;;;;;-148.88;100.00;76157.09;5038384;28;20036;-82
2022/05/20 05:12:42;;;;;;;27.25;20.40;;;;;;;-148.88;100.00;76163.19;5020096;28;20033;-81
2022/05/20 05:15:08;;;;;;;28.23;20.92;;;;;;;-148.88;100.00;76161.16;5020781;28;20387;-81
2022/05/20 05:20:24;;;;;;;32.53;22.85;;;;;;;-148.88;100.00;76148.97;5034292;28;20114;-78
2022/05/20 05:22:51;;;;;;;30.50;22.08;;;;;;;-148.88;100.00;76153.03;5036185;28;20021;-78
2022/05/20 05:25:17;;;;;;;26.58;21.40;;;;;;;-148.88;98.43;76179.44;5019655;28;20037;-80
2022/05/20 05:27:43;;;;;;;27.48;21.90;;;;;;;-148.88;99.33;76161.16;5036738;28;20038;-80
2022/05/20 05:30:11;;;;;;;30.42;22.40;;;;;;;-148.88;99.31;76159.13;5019496;28;20502;-80
2022/05/20 05:32:37;;;;;;;28.35;21.67;;;;;;;-148.88;100.00;76159.13;5037652;28;20021;-80
2022/05/20 05:35:04;;;;;;;30.02;21.90;;;;;;;-148.88;100.00;76138.81;5037583;28;20029;-78
2022/05/20 05:37:33;;;;;;;29.70;21.73;;;;;;;-148.88;100.00;76124.56;5019648;28;20390;-80
2022/05/20 05:39:59;;;;;;;29.67;22.23;;;;;;;-148.88;99.27;76126.59;5021963;28;20032;-81
2022/05/20 05:42:24;;;;;;;25.00;20.08;;;;;;;-148.88;97.79;76134.72;5041534;28;20029;-81
2022/05/20 05:44:52;;;;;;;27.92;20.05;;;;;;;-148.88;96.12;76138.81;5042020;28;20029;-79
2022/05/20 05:47:18;;;;;;;27.42;19.27;;;;;;;-148.88;96.45;76122.56;5024844;28;20021;-79
2022/05/20 05:49:43;;;;;;;24.95;19.70;;;;;;;-148.88;95.57;76122.56;5024773;28;20121;-80
2022/05/20 05:52:08;;;;;;;24.73;18.80;;;;;;;-148.88;95.55;76114.41;5024140;28;20025;-81
2022/05/20 05:54:35;;;;;;;23.08;18.15;;;;;;;-148.88;93.05;76122.56;5042910;28;20052;-80
2022/05/20 05:57:00;;;;;;;23.83;18.30;;;;;;;-148.88;94.14;76104.25;5022166;28;20025;-78
2022/05/20 05:59:26;;;;;;;25.92;17.98;;;;;;;-148.88;93.97;76100.19;5020838;28;20017;-80
2022/05/20 06:01:57;;;;;;;27.08;18.52;;;;;;;-148.88;93.82;76090.03;5040705;28;20029;-80
2022/05/20 06:04:22;;;;;;;27.65;18.88;;;;;;;-148.88;93.00;76083.94;5043039;28;20034;-79
2022/05/20 06:06:47;;;;;;;25.02;19.23;;;;;;;-148.88;93.00;76073.78;5023951;28;20053;-80
2022/05/20 06:09:13;;;;;;;24.65;18.65;;;;;;;-148.88;93.59;76077.84;5041312;28;20032;-80
2022/05/20 06:11:39;;;;;;;24.67;18.92;;;;;;;-148.88;94.24;76065.66;5040785;28;20045;-79
2022/05/20 06:14:07;;;;;;;27.20;19.52;;;;;;;-148.88;93.12;76073.78;5040692;28;20021;-79
2022/05/20 06:16:32;;;;;;;21.23;17.40;;;;;;;-148.88;92.17;76073.78;5022455;28;20018;-79
2022/05/20 06:18:58;;;;;;;28.08;20.33;;;;;;;-148.88;93.70;76077.84;5042005;28;20083;-79
2022/05/20 06:21:23;;;;;;;23.88;19.63;;;;;;;-148.88;93.97;76069.72;5023763;28;20398;-79
2022/05/20 06:23:48;;;;;;;26.77;19.70;;;;;;;-148.88;93.70;76077.84;5023870;28;20067;-79
2022/05/20 06:26:14;;;;;;;26.25;19.88;;;;;;;-148.88;94.02;76067.69;5023966;28;20038;-79
2022/05/20 06:28:39;;;;;;;25.48;18.92;;;;;;;-148.88;92.88;76069.72;5025154;28;20028;-79
2022/05/20 06:31:05;;;;;;;21.80;18.10;;;;;;;-148.88;92.44;76059.56;5023939;28;20029;-79
2022/05/20 06:33:31;;;;;;;26.73;18.55;;;;;;;-148.88;92.28;76053.47;5024036;28;20081;-79
2022/05/20 06:41:24;;;;;;;26.63;19.17;;;;;;;-148.88;91.87;76025.03;5042588;28;20059;-79
2022/05/20 06:43:49;;;;;;;24.83;18.30;;;;;;;-148.88;92.73;76004.72;5042358;28;20488;-79
2022/05/20 06:46:15;;;;;;;25.77;19.85;;;;;;;-148.88;92.88;76014.88;5024006;28;20059;-79
2022/05/20 06:48:50;;;;;;;22.63;17.83;;;;;;;-148.88;92.48;76027.06;5023646;28;20025;-79
2022/05/20 06:51:19;;;;;;;25.65;18.50;;;;;;;-148.88;92.70;76012.84;5040643;28;20025;-79
2022/05/20 06:53:45;;;;;;;21.27;18.20;;;;;;;-148.88;92.29;76004.72;5040486;28;20021;-79
2022/05/20 06:56:11;;;;;;;25.90;18.05;;;;;;;-148.88;90.75;75982.38;5039046;28;20387;-79
2022/05/20 06:58:37;;;;;;;24.55;17.67;;;;;;;-148.88;89.09;76000.66;5023028;28;20025;-80
2022/05/20 07:01:03;;;;;;;25.13;19.17;;;;;;;-148.88;92.90;75986.44;5022597;28;20021;-80
2022/05/20 07:03:29;;;;;;;24.15;17.75;;;;;;;-148.88;91.85;75982.38;5023253;28;20075;-79
2022/05/20 07:05:54;;;;;;;23.70;16.45;;;;;;;-148.88;91.36;75978.31;5024336;28;20029;-79
2022/05/20 07:08:20;;;;;;;25.30;19.08;;;;;;;-148.88;91.49;75964.09;5041304;28;20035;-78
2022/05/20 07:10:45;;;;;;;25.30;17.85;;;;;;;-148.88;91.85;75945.81;5023691;28;20033;-79
2022/05/20 07:13:12;;;;;;;24.88;17.65;;;;;;;-148.88;91.09;75929.56;5041922;28;20045;-77
2022/05/20 07:15:37;;;;;;;22.17;16.98;;;;;;;-148.88;90.51;75921.44;5021708;28;20036;-79
2022/05/20 07:18:03;;;;;;;22.42;17.45;;;;;;;-148.88;91.20;75905.19;5042381;28;20025;-79
2022/05/20 07:20:28;;;;;;;22.45;17.63;;;;;;;-148.88;91.75;75895.03;5040616;28;20022;-79
2022/05/20 07:22:53;;;;;;;21.13;15.85;;;;;;;-148.88;90.51;75895.03;5023526;28;20024;-79
2022/05/20 07:25:19;;;;;;;20.42;14.82;;;;;;;-148.88;88.81;75899.09;5022261;28;20025;-80
2022/05/20 07:27:45;;;;;;;24.30;15.57;;;;;;;-148.88;89.66;75895.03;5022525;28;20029;-79
2022/05/20 07:30:12;;;;;;;20.23;14.57;;;;;;;-148.88;87.65;75895.03;5022707;28;20352;-79
2022/05/20 07:32:37;;;;;;;20.02;14.85;;;;;;;-148.88;87.81;75890.97;5023602;28;20045;-79
2022/05/20 07:35:03;;;;;;;19.48;15.27;;;;;;;-148.88;89.05;75882.84;5041585;28;20025;-79
2022/05/20 07:37:28;;;;;;;18.63;14.35;;;;;;;-148.88;88.96;75856.44;5023039;28;20493;-79
2022/05/20 07:39:54;;;;;;;20.33;15.07;;;;;;;-148.88;88.85;75850.34;5040203;28;20021;-80
2022/05/20 07:42:19;;;;;;;19.20;13.93;;;;;;;-148.88;84.92;75866.59;5023374;28;20390;-79
2022/05/20 07:44:44;;;;;;;19.27;12.98;;;;;;;-148.88;85.93;75834.09;5041363;28;20391;-79
2022/05/20 07:47:10;;;;;;;15.50;11.82;;;;;;;-148.88;85.00;75823.94;5042394;28;20026;-79
2022/05/20 07:49:35;;;;;;;17.67;14.25;;;;;;;-148.88;86.13;75813.78;5040480;28;20101;-80
2022/05/20 07:52:03;;;;;;;18.15;14.38;;;;;;;-148.88;87.41;75801.59;5041334;28;20360;-78
2022/05/20 07:54:36;;;;;;;18.73;13.63;;;;;;;-148.88;86.90;75781.28;5039406;28;20025;-79
2022/05/20 07:57:07;;;;;;;16.97;12.93;;;;;;;-148.88;86.92;75760.97;5024540;28;20025;-79
2022/05/20 08:00:03;;;;;;;18.77;14.23;;;;;;;-148.88;85.98;75740.66;5025203;28;20098;-79
2022/05/20 08:02:29;;;;;;;16.90;13.95;;;;;;;-148.88;84.41;75748.78;5010379;28;20029;-79
2022/05/20 08:04:57;;;;;;;16.05;12.27;;;;;;;-148.88;86.21;75730.50;5024762;28;20035;-79
2022/05/20 08:07:28;;;;;;;17.65;13.98;;;;;;;-148.88;85.89;75716.28;5041002;28;20033;-79
2022/05/20 08:09:54;;;;;;;18.20;13.15;;;;;;;-148.88;83.72;75693.94;5023936;28;20532;-79
2022/05/20 08:12:21;;;;;;;16.30;13.45;;;;;;;-148.88;82.74;75689.88;5042576;28;20037;-79
2022/05/20 08:14:48;;;;;;;17.83;13.23;;;;;;;-148.88;81.94;75702.06;5041722;28;20077;-79
2022/05/20 08:17:13;;;;;;;14.65;11.57;;;;;;;-148.88;82.82;75675.66;5023321;28;20037;-79
2022/05/20 08:19:39;;;;;;;16.17;12.65;;;;;;;-148.88;82.68;75659.41;5023354;28;20018;-79
2022/05/20 08:22:04;;;;;;;15.88;11.77;;;;;;;-148.88;81.38;75624.88;5023501;28;20021;-79
2022/05/20 08:24:30;;;;;;;15.77;11.20;;;;;;;-148.88;79.81;75622.84;5022732;28;20045;-79
2022/05/20 08:26:56;;;;;;;14.23;11.05;;;;;;;-148.88;80.39;75604.56;5022616;28;20021;-79
2022/05/20 08:29:21;;;;;;;12.18;10.43;;;;;;;-148.88;81.01;75582.22;5039968;28;20075;-78
2022/05/20 08:31:47;;;;;;;13.23;11.52;;;;;;;-148.88;80.23;75566.00;5037493;28;20021;-78
2022/05/20 08:34:13;;;;;;;16.27;10.63;;;;;;;-148.88;79.14;75547.72;5023771;28;20104;-79
2022/05/20 08:36:39;;;;;;;15.18;10.50;;;;;;;-148.88;79.31;75545.69;5022728;28;20108;-79
2022/05/20 08:39:06;;;;;;;13.18;10.75;;;;;;;-148.88;77.88;75517.25;5040549;28;20095;-79
2022/05/20 08:41:40;;;;;;;13.77;10.40;;;;;;;-148.88;78.28;75515.22;5040410;28;20471;-78
2022/05/20 08:44:11;;;;;;;17.52;10.57;;;;;;;-148.88;73.29;75525.38;5022976;28;20022;-78
2022/05/20 08:46:37;;;;;;;13.43;10.25;;;;;;;-148.88;77.38;75488.81;5021909;28;20410;-78
2022/05/20 08:49:02;;;;;;;14.45;11.48;;;;;;;-148.88;76.70;75488.81;5021486;28;20502;-79
2022/05/20 08:51:33;;;;;;;13.35;9.57;;;;;;;-148.88;78.00;75456.31;5022249;28;20387;-79
2022/05/20 08:54:02;;;;;;;15.15;10.02;;;;;;;-148.88;74.11;75444.13;5040078;28;20471;-79
2022/05/20 08:56:27;;;;;;;12.32;9.75;;;;;;;-148.88;74.68;75423.81;5039779;28;20029;-78
2022/05/20 08:58:58;;;;;;;15.77;11.13;;;;;;;-148.88;74.44;75397.41;5021327;28;20044;-77
2022/05/20 09:01:35;;;;;;;14.02;10.43;;;;;;;-148.88;72.97;75383.19;5021259;28;20137;-79
2022/05/20 09:04:01;;;;;;;13.73;11.02;;;;;;;-148.88;72.05;75393.34;5038981;28;20022;-78
2022/05/20 09:06:28;;;;;;;16.48;11.82;;;;;;;-148.88;78.03;75368.97;5020703;28;20036;-77
2022/05/20 09:09:13;;;;;;;16.33;12.35;;;;;;;-148.88;73.25;75377.09;5019532;28;20116;-79
2022/05/20 09:11:41;;;;;;;15.57;10.75;;;;;;;-148.88;74.95;75350.69;5040609;28;20060;-78
2022/05/20 09:17:12;;;;;;;13.50;9.50;;;;;;;-148.88;70.86;75314.13;5045695;28;20386;-79
2022/05/20 09:19:52;;;;;;;12.38;9.25;;;;;;;-148.88;72.35;75295.84;5027727;28;20022;-78
2022/05/20 09:22:17;;;;;;;13.55;9.45;;;;;;;-148.88;72.27;75253.22;5027894;28;20386;-78
2022/05/20 09:24:45;;;;;;;12.25;8.32;;;;;;;-148.88;68.45;75224.78;5026877;28;20515;-79
2022/05/20 09:27:13;;;;;;;11.95;8.15;;;;;;;-148.88;68.25;75186.19;5026296;28;20167;-77
2022/05/20 09:30:05;;;;;;;10.23;7.07;;;;;;;-148.88;68.26;75163.84;5026109;28;20036;-78
2022/05/20 09:32:36;;;;;;;10.88;6.50;;;;;;;-148.88;66.02;75123.22;5018220;28;20034;-78
2022/05/20 09:35:11;;;;;;;7.90;5.63;;;;;;;-148.88;62.59;75098.84;5024003;28;20149;-78
2022/05/20 09:37:38;;;;;;;7.90;4.22;;;;;;;-148.88;60.58;75054.19;5023091;28;20032;-77
2022/05/20 09:40:31;;;;;;;7.22;5.35;;;;;;;-148.88;56.09;75088.72;5023491;28;20103;-77
2022/05/20 09:43:00;;;;;;;10.25;7.00;;;;;;;-148.88;57.05;75151.66;5021592;28;20114;-78
2022/05/20 09:45:26;;;;;;;12.15;6.80;;;;;;;-148.88;60.12;75109.00;5021601;28;20068;-77
2022/05/20 09:47:54;;;;;;;11.02;6.28;;;;;;;-148.88;60.44;75060.28;5022107;28;20112;-79
2022/05/20 09:50:34;;;;;;;8.73;5.57;;;;;;;-148.88;59.88;75042.00;5041843;28;20048;-77
2022/05/20 09:53:03;;;;;;;9.00;6.43;;;;;;;-148.88;56.87;75042.00;5043671;28;20021;-79
2022/05/20 09:55:38;;;;;;;10.70;6.10;;;;;;;-148.88;59.75;75029.81;5025163;28;20053;-79
2022/05/20 09:58:27;;;;;;;7.25;5.47;;;;;;;-148.88;56.98;75078.56;5042615;28;20103;-79
2022/05/20 10:01:00;;;;;;;8.15;4.80;;;;;;;-148.88;57.03;75066.38;5023911;28;20032;-77
2022/05/20 10:03:48;;;;;;;8.45;4.35;;;;;;;-148.88;55.64;74989.19;5023261;28;20506;-77
2022/05/20 10:06:45;;;;;;;6.18;4.40;;;;;;;-148.88;53.43;74981.06;5023328;28;20068;-78
2022/05/20 10:09:37;;;;;;;7.82;4.40;;;;;;;-148.88;52.37;74940.47;5023772;28;20026;-78
2022/05/20 10:12:17;;;;;;;7.93;3.78;;;;;;;-148.88;52.47;74903.91;5022206;28;20032;-77
2022/05/20 10:15:04;;;;;;;6.78;4.22;;;;;;;-148.88;50.10;74867.34;5040316;28;20032;-78
2022/05/20 10:17:46;;;;;;;5.72;3.75;;;;;;;-148.88;48.30;74863.28;5039642;28;20081;-77
2022/05/20 10:20:39;;;;;;;7.37;4.40;;;;;;;-148.88;50.12;74873.44;5038288;28;20031;-78
2022/05/20 10:23:22;;;;;;;8.07;4.72;;;;;;;-148.88;49.54;74881.56;5019959;28;20647;-78
2022/05/20 10:26:12;;;;;;;8.82;4.20;;;;;;;-148.88;52.30;74855.16;5020752;28;20029;-79
2022/05/20 10:34:27;;;;;;;7.13;4.68;;;;;;;-148.88;51.76;74928.28;5039957;28;20023;-78
2022/05/20 10:37:15;;;;;;;9.05;4.80;;;;;;;-148.88;52.56;74948.56;5021935;28;20119;-78
2022/05/20 10:40:01;;;;;;;6.85;3.92;;;;;;;-148.88;52.45;74940.47;5039678;28;20030;-77
2022/05/20 10:42:45;;;;;;;7.25;3.78;;;;;;;-148.88;54.24;74891.72;5040427;28;20025;-79
2022/05/20 10:48:34;;;;;;;5.68;4.30;;;;;;;-148.88;51.33;74847.03;5039846;28;20039;-78
2022/05/20 10:51:37;;;;;;;6.63;4.57;;;;;;;-148.88;51.69;74883.59;5038702;28;20025;-77
2022/05/20 10:54:12;;;;;;;6.30;4.18;;;;;;;-148.88;52.50;74875.47;5036053;28;20042;-78
2022/05/20 10:57:01;;;;;;;7.72;4.85;;;;;;;-148.88;54.93;74907.97;5039623;28;20029;-76
2022/05/20 10:59:42;;;;;;;6.18;3.47;;;;;;;-148.88;55.44;74851.09;5039199;28;20029;-78
2022/05/20 11:02:25;;;;;;;8.60;4.80;;;;;;;-148.88;52.72;74780.03;5038227;28;20030;-77
2022/05/20 11:05:02;;;;;;;6.47;4.50;;;;;;;-148.88;52.42;74721.13;5038862;28;20029;-79
2022/05/20 11:07:27;;;;;;;7.82;4.25;;;;;;;-148.88;51.30;74700.84;5021927;28;20033;-78
2022/05/20 11:09:58;;;;;;;6.03;3.80;;;;;;;-148.88;50.13;74684.59;5023560;28;20091;-78
2022/05/20 11:12:43;;;;;;;5.40;4.00;;;;;;;-148.88;49.01;74664.28;5023843;28;20259;-79
2022/05/20 11:15:42;;;;;;;8.07;4.03;;;;;;;-148.88;51.01;74574.94;5040176;28;20037;-78
2022/05/20 11:18:28;;;;;;;6.72;4.35;;;;;;;-148.88;48.80;74556.66;5010280;28;20037;-78
2022/05/20 11:21:27;;;;;;;6.53;3.83;;;;;;;-148.88;49.03;74544.47;5038654;28;20033;-78
2022/05/20 11:24:20;;;;;;;7.07;4.95;;;;;;;-148.88;48.70;74505.88;5021045;28;20021;-78
2022/05/20 11:26:55;;;;;;;6.70;4.47;;;;;;;-148.88;49.19;74463.25;5022217;28;20041;-78
2022/05/20 11:30:00;;;;;;;6.35;4.30;;;;;;;-148.88;46.68;74485.59;5020940;28;20030;-77
2022/05/20 11:32:35;;;;;;;6.13;4.07;;;;;;;-148.88;47.99;74442.94;5038529;28;20029;-78
2022/05/20 11:35:20;;;;;;;8.82;5.43;;;;;;;-148.88;48.44;74465.28;5019297;28;20402;-77
2022/05/20 11:38:19;;;;;;;8.30;5.25;;;;;;;-148.88;50.26;74501.81;5019265;28;20036;-77
2022/05/20 11:41:26;;;;;;;7.32;4.97;;;;;;;-148.88;50.54;74461.22;5018601;28;20490;-77
2022/05/20 11:44:16;;;;;;;8.80;5.07;;;;;;;-148.88;50.61;74396.25;5014328;28;20495;-79
2022/05/20 11:47:06;;;;;;;7.82;5.35;;;;;;;-148.88;49.61;74392.19;5038374;28;20026;-79
2022/05/20 11:49:46;;;;;;;6.93;5.10;;;;;;;-148.88;49.38;74408.44;5038570;28;20025;-79
2022/05/20 11:52:37;;;;;;;8.73;5.47;;;;;;;-148.88;50.46;74392.19;5022462;28;20171;-78